createdAt,value
2022-10-16T00:01:45.512Z,20.10
2022-10-16T00:04:14.297Z,20.30
2022-10-16T00:06:42.507Z,19.40
2022-10-16T00:09:10.565Z,18.60
2022-10-16T00:11:41.120Z,17.90
2022-10-16T00:14:15.505Z,17.40
2022-10-16T00:16:44.085Z,17.00
2022-10-16T00:19:14.867Z,16.70
2022-10-16T00:21:43.425Z,16.80
2022-10-16T00:24:12.154Z,16.40
2022-10-16T00:26:41.668Z,15.30
2022-10-16T00:29:10.516Z,18.60
2022-10-16T00:31:38.804Z,16.20
2022-10-16T00:34:06.852Z,14.20
2022-10-16T00:36:35.020Z,15.40
2022-10-16T00:39:03.774Z,14.80
2022-10-16T00:41:32.938Z,19.00
2022-10-16T00:44:04.058Z,18.30
2022-10-16T00:46:35.105Z,21.30
2022-10-16T00:49:11.658Z,21.40
2022-10-16T00:51:42.760Z,21.60
2022-10-16T00:54:24.732Z,20.00
2022-10-16T00:56:55.110Z,21.10
2022-10-16T00:59:36.619Z,16.90
2022-10-16T01:02:07.102Z,16.90
2022-10-16T01:04:45.308Z,17.80
2022-10-16T01:07:32.047Z,16.00
2022-10-16T01:10:27.186Z,16.10
2022-10-16T01:13:00.897Z,15.90
2022-10-16T01:18:18.261Z,15.60
2022-10-16T01:20:58.465Z,15.10
2022-10-16T01:23:26.686Z,14.80
2022-10-16T01:26:01.047Z,14.30
2022-10-16T01:28:45.978Z,15.90
2022-10-16T01:31:19.319Z,14.60
2022-10-16T01:36:49.609Z,14.50
2022-10-16T01:39:21.967Z,15.20
2022-10-16T01:41:56.016Z,15.80
2022-10-16T01:44:29.661Z,17.20
2022-10-16T01:46:58.648Z,15.70
2022-10-16T01:49:31.301Z,16.50
2022-10-16T01:52:04.000Z,17.30
2022-10-16T01:54:34.679Z,16.90
2022-10-16T01:57:04.192Z,16.30
2022-10-16T01:59:34.457Z,16.00
2022-10-16T02:02:08.939Z,14.10
2022-10-16T02:04:50.925Z,14.30
2022-10-16T02:07:19.208Z,13.10
2022-10-16T02:09:47.804Z,13.50
2022-10-16T02:12:25.514Z,12.90
2022-10-16T02:14:54.604Z,12.30
2022-10-16T02:17:23.068Z,11.80
2022-10-16T02:19:54.633Z,11.40
2022-10-16T02:22:33.971Z,12.00
2022-10-16T02:25:08.216Z,10.90
2022-10-16T02:27:36.459Z,9.50
2022-10-16T02:30:19.624Z,10.10
2022-10-16T02:32:50.179Z,9.50
2022-10-16T02:35:22.135Z,10.00
2022-10-16T02:37:51.957Z,11.30
2022-10-16T02:40:24.379Z,10.70
2022-10-16T02:42:55.738Z,11.80
2022-10-16T02:45:25.214Z,13.50
2022-10-16T02:47:53.757Z,14.10
2022-10-16T02:50:22.260Z,15.30
2022-10-16T02:52:50.508Z,17.20
2022-10-16T02:55:18.926Z,17.20
2022-10-16T02:57:47.199Z,16.70
2022-10-16T03:00:17.756Z,18.60
2022-10-16T03:02:46.271Z,18.70
2022-10-16T03:05:15.751Z,19.30
2022-10-16T03:07:44.041Z,19.30
2022-10-16T03:10:12.155Z,20.60
2022-10-16T03:12:40.300Z,20.50
2022-10-16T03:15:09.604Z,22.00
2022-10-16T03:17:37.805Z,21.10
2022-10-16T03:20:06.370Z,19.90
2022-10-16T03:22:34.606Z,19.70
2022-10-16T03:25:02.707Z,20.50
2022-10-16T03:27:30.862Z,21.80
2022-10-16T03:29:59.264Z,24.10
2022-10-16T03:32:30.295Z,21.50
2022-10-16T03:34:59.168Z,21.60
2022-10-16T03:37:28.292Z,21.10
2022-10-16T03:39:57.026Z,20.00
2022-10-16T03:42:25.708Z,20.30
2022-10-16T03:44:53.956Z,19.20
2022-10-16T03:47:24.933Z,18.10
2022-10-16T03:49:53.718Z,16.90
2022-10-16T03:52:22.080Z,17.10
2022-10-16T03:54:50.241Z,15.50
2022-10-16T03:57:18.776Z,15.70
2022-10-16T03:59:46.849Z,15.90
2022-10-16T04:02:15.252Z,16.00
2022-10-16T04:04:43.311Z,15.60
2022-10-16T04:07:11.315Z,16.90
2022-10-16T04:09:39.287Z,15.60
2022-10-16T04:12:07.229Z,18.40
2022-10-16T04:14:35.304Z,18.50
2022-10-16T04:17:03.175Z,20.90
2022-10-16T04:19:31.097Z,21.70
2022-10-16T04:21:59.464Z,21.60
2022-10-16T04:24:27.509Z,21.40
2022-10-16T04:26:55.614Z,22.00
2022-10-16T04:29:23.849Z,19.10
2022-10-16T04:31:52.078Z,16.90
2022-10-16T04:34:20.236Z,15.70
2022-10-16T04:36:52.600Z,15.80
2022-10-16T04:39:20.774Z,16.60
2022-10-16T04:41:48.715Z,14.70
2022-10-16T04:44:16.618Z,14.40
2022-10-16T04:46:45.707Z,14.20
2022-10-16T04:49:13.798Z,16.10
2022-10-16T04:51:41.985Z,15.10
2022-10-16T04:54:11.147Z,14.40
2022-10-16T04:56:47.168Z,15.60
2022-10-16T04:59:16.388Z,14.30
2022-10-16T05:01:44.595Z,14.30
2022-10-16T05:04:13.097Z,14.50
2022-10-16T05:06:41.165Z,14.40
2022-10-16T05:09:10.122Z,14.20
2022-10-16T05:11:38.328Z,15.90
2022-10-16T05:14:06.367Z,15.50
2022-10-16T05:16:34.581Z,15.50
2022-10-16T05:21:51.105Z,15.90
2022-10-16T05:24:19.098Z,16.20
2022-10-16T05:26:47.277Z,16.00
2022-10-16T05:29:15.981Z,14.50
2022-10-16T05:31:44.111Z,14.50
2022-10-16T05:38:38.852Z,16.40
2022-10-16T05:41:08.037Z,18.60
2022-10-16T05:43:36.966Z,17.50
2022-10-16T05:46:07.140Z,20.70
2022-10-16T05:48:35.392Z,25.10
2022-10-16T05:51:05.840Z,23.60
2022-10-16T05:53:35.598Z,23.90
2022-10-16T05:56:04.513Z,26.50
2022-10-16T05:58:36.441Z,29.10
2022-10-16T06:01:08.260Z,29.00
2022-10-16T06:03:36.814Z,31.00
2022-10-16T06:06:12.918Z,32.40
2022-10-16T06:08:42.682Z,34.00
2022-10-16T06:11:14.764Z,35.40
2022-10-16T06:13:43.781Z,35.20
2022-10-16T06:16:12.859Z,32.90
2022-10-16T06:18:41.160Z,34.00
2022-10-16T06:21:12.551Z,34.20
2022-10-16T06:23:40.785Z,34.20
2022-10-16T06:26:10.445Z,34.30
2022-10-16T06:28:39.574Z,33.40
2022-10-16T06:31:09.481Z,30.30
2022-10-16T06:33:39.192Z,30.00
2022-10-16T06:36:15.753Z,27.10
2022-10-16T06:38:44.882Z,25.90
2022-10-16T06:41:16.123Z,23.40
2022-10-16T06:43:46.344Z,23.00
2022-10-16T06:46:17.479Z,18.10
2022-10-16T06:48:45.453Z,21.50
2022-10-16T06:51:16.999Z,18.30
2022-10-16T06:54:05.642Z,17.20
2022-10-16T06:56:34.936Z,18.50
2022-10-16T06:59:04.094Z,17.30
2022-10-16T07:01:33.068Z,20.60
2022-10-16T07:04:02.163Z,16.70
2022-10-16T07:06:33.768Z,18.10
2022-10-16T07:09:04.648Z,17.00
2022-10-16T07:11:33.581Z,14.10
2022-10-16T07:14:01.658Z,17.40
2022-10-16T07:16:32.593Z,15.20
2022-10-16T07:19:02.622Z,12.60
2022-10-16T07:21:36.997Z,14.90
2022-10-16T07:24:14.548Z,14.30
2022-10-16T07:26:45.060Z,16.90
2022-10-16T07:29:16.186Z,17.10
2022-10-16T07:31:45.331Z,16.60
2022-10-16T07:34:15.092Z,16.20
2022-10-16T07:36:43.729Z,15.50
2022-10-16T07:39:12.315Z,19.50
2022-10-16T07:41:40.924Z,17.70
2022-10-16T07:44:09.866Z,18.00
2022-10-16T07:46:38.083Z,18.40
2022-10-16T07:49:06.124Z,17.90
2022-10-16T07:51:37.417Z,15.60
2022-10-16T07:54:05.876Z,16.20
2022-10-16T07:56:34.366Z,18.00
2022-10-16T07:59:02.784Z,18.80
2022-10-16T08:01:30.901Z,17.40
2022-10-16T08:03:59.110Z,18.50
2022-10-16T08:06:28.218Z,19.00
2022-10-16T08:08:57.610Z,18.60
2022-10-16T08:11:25.825Z,17.90
2022-10-16T08:13:54.039Z,20.70
2022-10-16T08:16:22.647Z,21.60
2022-10-16T08:18:52.706Z,20.10
2022-10-16T08:21:24.333Z,19.50
2022-10-16T08:23:57.098Z,19.70
2022-10-16T08:26:27.870Z,22.60
2022-10-16T08:28:57.648Z,22.60
2022-10-16T08:31:28.376Z,19.10
2022-10-16T08:33:56.719Z,23.60
2022-10-16T08:36:25.463Z,22.20
2022-10-16T08:38:55.571Z,23.70
2022-10-16T08:41:51.782Z,22.50
2022-10-16T08:44:37.513Z,24.20
2022-10-16T08:47:19.869Z,24.60
2022-10-16T08:50:11.766Z,21.80
2022-10-16T08:52:43.210Z,18.60
2022-10-16T08:55:39.537Z,17.30
2022-10-16T08:58:17.884Z,17.80
2022-10-16T09:00:49.835Z,18.50
2022-10-16T09:03:27.503Z,14.90
2022-10-16T09:06:09.170Z,15.10
2022-10-16T09:09:14.796Z,16.30
2022-10-16T09:12:16.893Z,15.90
2022-10-16T09:14:59.949Z,16.10
2022-10-16T09:17:37.145Z,18.20
2022-10-16T09:20:15.223Z,22.20
2022-10-16T09:22:43.994Z,20.60
2022-10-16T09:25:21.121Z,25.30
2022-10-16T09:27:53.745Z,23.60
2022-10-16T09:30:24.339Z,18.80
2022-10-16T09:32:54.712Z,19.70
2022-10-16T09:35:43.346Z,20.30
2022-10-16T09:38:33.566Z,21.60
2022-10-16T09:41:20.653Z,21.50
2022-10-16T09:43:58.322Z,21.70
2022-10-16T09:46:38.944Z,22.70
2022-10-16T09:49:25.083Z,22.50
2022-10-16T09:54:32.194Z,20.80
2022-10-16T09:57:14.768Z,19.80
2022-10-16T09:59:51.526Z,21.90
2022-10-16T10:02:36.290Z,19.60
2022-10-16T10:05:07.283Z,21.70
2022-10-16T10:07:44.075Z,20.80
2022-10-16T10:10:31.466Z,21.40
2022-10-16T10:13:00.204Z,18.70
2022-10-16T10:15:34.888Z,21.30
2022-10-16T10:18:04.526Z,21.50
2022-10-16T10:20:39.934Z,21.60
2022-10-16T10:23:26.822Z,20.90
2022-10-16T10:26:07.209Z,22.80
2022-10-16T10:28:58.406Z,23.40
2022-10-16T10:31:37.644Z,24.70
2022-10-16T10:34:06.077Z,24.40
2022-10-16T10:36:41.491Z,21.40
2022-10-16T10:42:02.379Z,22.70
2022-10-16T10:44:39.498Z,22.30
2022-10-16T10:47:16.730Z,18.30
2022-10-16T10:50:06.725Z,20.70
2022-10-16T10:52:48.971Z,18.40
2022-10-16T10:55:25.243Z,19.60
2022-10-16T10:58:22.493Z,20.50
2022-10-16T11:01:11.414Z,19.90
2022-10-16T11:04:16.835Z,21.10
2022-10-16T11:06:53.654Z,18.70
2022-10-16T11:09:29.108Z,15.20
2022-10-16T11:12:00.227Z,18.70
2022-10-16T11:15:16.154Z,15.90
2022-10-16T11:18:06.658Z,17.60
2022-10-16T11:20:53.830Z,14.70
2022-10-16T11:23:42.037Z,16.80
2022-10-16T11:26:34.220Z,14.90
2022-10-16T11:29:06.364Z,15.00
2022-10-16T11:31:48.531Z,14.60
2022-10-16T11:34:46.640Z,13.10
2022-10-16T11:37:26.201Z,14.00
2022-10-16T11:40:00.220Z,13.70
2022-10-16T11:42:41.300Z,11.30
2022-10-16T11:45:34.408Z,10.70
2022-10-16T11:48:14.030Z,10.80
2022-10-16T11:50:51.198Z,10.50
2022-10-16T11:53:28.359Z,10.50
2022-10-16T11:55:56.630Z,10.60
2022-10-16T11:58:33.666Z,10.10
2022-10-16T12:01:12.347Z,10.60
2022-10-16T12:04:16.851Z,9.00
2022-10-16T12:06:52.422Z,9.10
2022-10-16T12:09:33.844Z,9.00
2022-10-16T12:12:02.176Z,9.80
2022-10-16T12:14:30.349Z,8.50
2022-10-16T12:17:01.278Z,8.40
2022-10-16T12:19:31.823Z,7.10
2022-10-16T12:22:03.110Z,7.50
2022-10-16T12:24:42.268Z,7.10
2022-10-16T12:27:33.796Z,7.10
2022-10-16T12:30:07.364Z,7.70
2022-10-16T12:32:48.280Z,7.50
2022-10-16T12:35:26.667Z,7.50
2022-10-16T12:37:55.813Z,7.40
2022-10-16T12:40:29.843Z,7.10
2022-10-16T12:42:58.735Z,5.80
2022-10-16T12:45:27.806Z,6.70
2022-10-16T12:47:56.957Z,8.10
2022-10-16T12:50:25.240Z,8.30
2022-10-16T12:52:53.833Z,7.30
2022-10-16T12:55:23.988Z,7.60
2022-10-16T12:58:17.186Z,7.80
2022-10-16T13:00:47.206Z,7.40
2022-10-16T13:03:34.363Z,7.10
2022-10-16T13:06:40.662Z,6.90
2022-10-16T13:09:17.981Z,7.00
2022-10-16T13:12:04.177Z,6.40
2022-10-16T13:15:06.775Z,7.30
2022-10-16T13:17:47.820Z,6.50
2022-10-16T13:20:44.528Z,7.60
2022-10-16T13:23:19.034Z,6.90
2022-10-16T13:25:59.645Z,6.70
2022-10-16T13:28:37.484Z,6.60
2022-10-16T13:31:06.418Z,6.90
2022-10-16T13:33:38.914Z,6.40
2022-10-16T13:36:07.961Z,6.00
2022-10-16T13:38:37.237Z,6.60
2022-10-16T13:41:15.069Z,6.40
2022-10-16T13:43:57.309Z,6.10
2022-10-16T13:46:26.780Z,6.10
2022-10-16T13:49:18.531Z,6.00
2022-10-16T13:51:58.151Z,6.00
2022-10-16T13:54:28.081Z,5.40
2022-10-16T13:57:03.035Z,5.70
2022-10-16T13:59:40.015Z,5.80
2022-10-16T14:02:36.928Z,5.60
2022-10-16T14:05:10.685Z,5.80
2022-10-16T14:07:39.428Z,5.80
2022-10-16T14:10:21.867Z,5.40
2022-10-16T14:13:05.494Z,5.90
2022-10-16T14:15:37.797Z,5.90
2022-10-16T14:18:06.651Z,5.70
2022-10-16T14:20:36.376Z,5.30
2022-10-16T14:23:33.482Z,6.20
2022-10-16T14:26:29.088Z,5.80
2022-10-16T14:29:16.383Z,5.60
2022-10-16T14:31:59.589Z,5.90
2022-10-16T14:34:36.966Z,5.90
2022-10-16T14:37:31.845Z,6.60
2022-10-16T14:40:03.749Z,6.20
2022-10-16T14:42:32.134Z,6.40
2022-10-16T14:45:00.284Z,6.70
2022-10-16T14:47:29.000Z,6.60
2022-10-16T14:49:59.864Z,6.50
2022-10-16T14:52:28.192Z,7.00
2022-10-16T14:54:57.611Z,7.00
2022-10-16T14:57:33.879Z,7.60
2022-10-16T15:00:03.253Z,8.40
2022-10-16T15:02:35.755Z,7.30
2022-10-16T15:05:15.627Z,6.70
2022-10-16T15:07:43.757Z,8.40
2022-10-16T15:10:13.581Z,7.60
2022-10-16T15:12:41.935Z,7.80
2022-10-16T15:15:28.967Z,7.90
2022-10-16T15:17:58.153Z,7.30
2022-10-16T15:20:31.434Z,7.40
2022-10-16T15:22:59.724Z,8.90
2022-10-16T15:25:46.664Z,7.90
2022-10-16T15:28:16.956Z,7.50
2022-10-16T15:30:46.313Z,6.90
2022-10-16T15:33:20.031Z,7.00
2022-10-16T15:35:49.888Z,7.80
2022-10-16T15:38:20.162Z,7.40
2022-10-16T15:40:49.543Z,7.00
2022-10-16T15:43:18.097Z,7.10
2022-10-16T15:46:01.893Z,7.10
2022-10-16T15:48:31.957Z,7.00
2022-10-16T15:51:02.265Z,7.30
2022-10-16T15:53:31.188Z,7.60
2022-10-16T15:56:03.456Z,7.70
2022-10-16T15:58:31.924Z,8.40
2022-10-16T16:01:02.484Z,7.40
2022-10-16T16:03:32.955Z,7.60
2022-10-16T16:06:06.607Z,7.40
2022-10-16T16:08:35.656Z,6.80
2022-10-16T16:11:10.593Z,8.00
2022-10-16T16:16:10.238Z,7.60
2022-10-16T16:18:38.829Z,7.60
2022-10-16T16:21:07.761Z,7.60
2022-10-16T16:23:36.092Z,8.70
2022-10-16T16:26:08.798Z,7.80
2022-10-16T16:28:37.459Z,8.50
2022-10-16T16:31:06.416Z,9.40
2022-10-16T16:33:34.946Z,9.40
2022-10-16T16:36:11.552Z,10.00
2022-10-16T16:38:41.827Z,9.40
2022-10-16T16:41:20.048Z,9.00
2022-10-16T16:43:49.574Z,10.40
2022-10-16T16:46:18.840Z,10.40
2022-10-16T16:48:47.349Z,11.20
2022-10-16T16:51:18.861Z,10.80
2022-10-16T16:53:50.173Z,10.70
2022-10-16T16:56:19.441Z,12.30
2022-10-16T16:58:49.300Z,12.30
2022-10-16T17:01:20.644Z,12.50
2022-10-16T17:03:52.942Z,14.50
2022-10-16T17:06:23.891Z,14.80
2022-10-16T17:08:53.404Z,16.40
2022-10-16T17:11:27.341Z,16.40
2022-10-16T17:13:57.925Z,16.60
2022-10-16T17:16:31.965Z,16.90
2022-10-16T17:19:02.080Z,19.70
2022-10-16T17:21:31.816Z,18.90
2022-10-16T17:24:01.206Z,16.90
2022-10-16T17:26:29.808Z,17.40
2022-10-16T17:29:02.181Z,15.80
2022-10-16T17:31:34.083Z,14.50
2022-10-16T17:34:05.967Z,14.50
2022-10-16T17:36:37.177Z,14.40
2022-10-16T17:39:08.776Z,15.10
2022-10-16T17:41:38.886Z,15.80
2022-10-16T17:44:07.848Z,15.20
2022-10-16T17:46:40.026Z,14.40
2022-10-16T17:49:09.980Z,15.60
2022-10-16T17:51:38.694Z,17.40
2022-10-16T17:54:07.829Z,15.60
2022-10-16T17:56:36.477Z,14.60
2022-10-16T17:59:05.385Z,15.30
2022-10-16T18:01:41.761Z,15.30
2022-10-16T18:04:13.262Z,15.00
2022-10-16T18:06:44.021Z,14.00
2022-10-16T18:09:16.068Z,13.70
2022-10-16T18:11:44.609Z,14.10
2022-10-16T18:14:15.090Z,14.00
2022-10-16T18:16:43.364Z,14.30
2022-10-16T18:19:12.876Z,13.10
2022-10-16T18:21:41.474Z,13.90
2022-10-16T18:24:10.357Z,13.90
2022-10-16T18:26:39.673Z,13.20
2022-10-16T18:29:08.753Z,14.10
2022-10-16T18:31:40.383Z,15.00
2022-10-16T18:34:11.767Z,15.20
2022-10-16T18:36:40.261Z,15.10
2022-10-16T18:39:11.220Z,15.90
2022-10-16T18:41:45.136Z,15.80
2022-10-16T18:44:14.196Z,16.10
2022-10-16T18:46:42.774Z,16.20
2022-10-16T18:49:10.759Z,15.90
2022-10-16T18:51:41.465Z,16.20
2022-10-16T18:54:12.627Z,15.80
2022-10-16T18:56:40.842Z,15.00
2022-10-16T18:59:10.032Z,15.40
2022-10-16T19:01:39.277Z,15.30
2022-10-16T19:04:12.322Z,15.80
2022-10-16T19:06:43.709Z,15.70
2022-10-16T19:09:14.175Z,15.80
2022-10-16T19:11:42.596Z,15.30
2022-10-16T19:14:12.619Z,15.50
2022-10-16T19:16:43.255Z,16.20
2022-10-16T19:19:14.681Z,17.40
2022-10-16T19:21:43.846Z,17.00
2022-10-16T19:24:14.571Z,17.20
2022-10-16T19:26:44.139Z,17.80
2022-10-16T19:29:12.918Z,17.60
2022-10-16T19:31:41.969Z,18.00
2022-10-16T19:34:11.481Z,17.40
2022-10-16T19:36:41.286Z,18.60
2022-10-16T19:39:15.062Z,18.40
2022-10-16T19:41:44.285Z,19.40
2022-10-16T19:44:15.199Z,20.30
2022-10-16T19:46:43.160Z,18.30
2022-10-16T19:49:14.045Z,18.60
2022-10-16T19:51:42.067Z,19.10
2022-10-16T19:54:14.501Z,17.10
2022-10-16T19:56:43.071Z,17.40
2022-10-16T19:59:13.797Z,17.90
2022-10-16T20:01:42.158Z,17.80
2022-10-16T20:04:10.900Z,16.90
2022-10-16T20:06:39.458Z,18.00
2022-10-16T20:09:07.560Z,17.80
2022-10-16T20:11:36.974Z,15.90
2022-10-16T20:14:05.824Z,16.60
2022-10-16T20:16:34.551Z,16.00
2022-10-16T20:19:04.305Z,16.90
2022-10-16T20:21:34.656Z,16.60
2022-10-16T20:24:07.314Z,17.20
2022-10-16T20:26:36.432Z,17.70
2022-10-16T20:29:06.155Z,17.70
2022-10-16T20:31:34.916Z,17.60
2022-10-16T20:34:11.109Z,18.20
2022-10-16T20:36:42.749Z,18.30
2022-10-16T20:39:13.831Z,18.10
2022-10-16T20:41:42.178Z,17.50
2022-10-16T20:44:10.208Z,17.60
2022-10-16T20:46:38.214Z,15.90
2022-10-16T20:49:11.021Z,17.20
2022-10-16T20:51:45.619Z,16.30
2022-10-16T20:54:13.507Z,15.40
2022-10-16T20:56:44.187Z,15.90
2022-10-16T20:59:15.535Z,15.50
2022-10-16T21:01:43.496Z,15.10
2022-10-16T21:04:11.791Z,15.20
2022-10-16T21:06:40.454Z,14.20
2022-10-16T21:09:09.619Z,15.20
2022-10-16T21:11:38.274Z,15.00
2022-10-16T21:14:07.782Z,13.40
2022-10-16T21:16:36.121Z,14.80
2022-10-16T21:19:04.703Z,14.90
2022-10-16T21:21:36.511Z,15.80
2022-10-16T21:24:05.572Z,16.50
2022-10-16T21:26:33.590Z,16.00
2022-10-16T21:29:05.322Z,16.70
2022-10-16T21:31:34.389Z,15.90
2022-10-16T21:34:03.078Z,16.20
2022-10-16T21:36:34.261Z,15.80
2022-10-16T21:39:07.711Z,14.20
2022-10-16T21:41:36.951Z,14.50
2022-10-16T21:44:06.991Z,14.20
2022-10-16T21:46:38.526Z,13.60
2022-10-16T21:49:12.134Z,12.40
2022-10-16T21:51:44.969Z,13.40
2022-10-16T21:54:16.450Z,13.00
2022-10-16T21:56:44.839Z,12.30
2022-10-16T21:59:14.038Z,11.40
2022-10-16T22:01:43.133Z,12.30
2022-10-16T22:04:13.516Z,11.90
2022-10-16T22:06:41.757Z,12.30
2022-10-16T22:09:14.651Z,12.70
2022-10-16T22:11:44.721Z,12.80
2022-10-16T22:14:19.447Z,13.00
2022-10-16T22:16:48.653Z,14.20
2022-10-16T22:19:19.375Z,13.80
2022-10-16T22:21:49.060Z,14.70
2022-10-16T22:24:17.730Z,13.80
2022-10-16T22:26:45.722Z,14.00
2022-10-16T22:29:14.721Z,13.70
2022-10-16T22:31:43.602Z,12.50
2022-10-16T22:34:14.249Z,11.50
2022-10-16T22:36:42.367Z,12.60
2022-10-16T22:39:10.893Z,11.90
2022-10-16T22:41:38.793Z,12.20
2022-10-16T22:44:12.030Z,11.80
2022-10-16T22:46:40.740Z,11.30
2022-10-16T22:49:08.646Z,11.40
2022-10-16T22:51:40.977Z,11.50
2022-10-16T22:54:11.692Z,12.50
2022-10-16T22:56:39.785Z,12.30
2022-10-16T22:59:09.321Z,13.20
2022-10-16T23:01:40.918Z,12.90
2022-10-16T23:04:09.116Z,13.40
2022-10-16T23:06:37.307Z,12.30
2022-10-16T23:09:05.424Z,12.00
2022-10-16T23:11:33.621Z,10.90
2022-10-16T23:14:01.884Z,10.60
2022-10-16T23:16:30.735Z,10.10
2022-10-16T23:18:58.990Z,11.10
2022-10-16T23:21:27.206Z,9.50
2022-10-16T23:23:55.831Z,10.30
2022-10-16T23:26:26.960Z,9.50
2022-10-16T23:28:59.411Z,9.80
2022-10-16T23:31:29.009Z,10.10
2022-10-16T23:33:58.400Z,10.40
2022-10-16T23:36:26.746Z,10.50
2022-10-16T23:38:56.158Z,11.00
2022-10-16T23:41:24.245Z,10.60
2022-10-16T23:43:52.618Z,11.10
2022-10-16T23:46:21.004Z,11.60
2022-10-16T23:48:48.952Z,12.20
2022-10-16T23:51:16.923Z,12.10
2022-10-16T23:53:45.583Z,12.80
2022-10-16T23:56:14.207Z,12.20
2022-10-16T23:58:42.630Z,11.70
